createdAt,value
2022-12-20T00:00:51.612Z,30.33
2022-12-20T00:03:18.595Z,32.37
2022-12-20T00:05:45.907Z,30.33
2022-12-20T00:08:12.903Z,30.53
2022-12-20T00:10:41.367Z,30.73
2022-12-20T00:13:08.260Z,26.10
2022-12-20T00:15:35.104Z,31.87
2022-12-20T00:18:02.252Z,33.20
2022-12-20T00:20:29.312Z,28.17
2022-12-20T00:22:56.287Z,28.70
2022-12-20T00:25:22.894Z,28.30
2022-12-20T00:27:49.547Z,26.30
2022-12-20T00:30:16.556Z,28.47
2022-12-20T00:32:44.636Z,24.73
2022-12-20T00:35:11.836Z,33.37
2022-12-20T00:37:38.605Z,26.80
2022-12-20T00:40:06.705Z,23.93
2022-12-20T00:42:33.388Z,32.53
2022-12-20T00:44:59.999Z,32.60
2022-12-20T00:47:26.608Z,29.03
2022-12-20T00:49:54.237Z,27.07
2022-12-20T00:52:20.858Z,24.97
2022-12-20T00:54:47.460Z,27.90
2022-12-20T00:57:14.059Z,26.70
2022-12-20T00:59:40.683Z,24.30
2022-12-20T01:02:07.491Z,26.97
2022-12-20T01:04:34.426Z,27.50
2022-12-20T01:07:01.034Z,26.07
2022-12-20T01:09:27.628Z,28.57
2022-12-20T01:11:54.223Z,25.07
2022-12-20T01:14:20.856Z,28.47
2022-12-20T01:16:48.215Z,28.53
2022-12-20T01:19:17.430Z,27.90
2022-12-20T01:21:47.100Z,32.37
2022-12-20T01:24:14.961Z,30.27
2022-12-20T01:26:42.119Z,26.83
2022-12-20T01:29:09.078Z,28.33
2022-12-20T01:31:36.055Z,25.83
2022-12-20T01:34:03.465Z,27.00
2022-12-20T01:36:33.255Z,27.87
2022-12-20T01:39:13.155Z,26.57
2022-12-20T01:41:43.456Z,30.47
2022-12-20T01:44:19.263Z,28.00
2022-12-20T01:46:47.179Z,26.07
2022-12-20T01:49:23.022Z,29.13
2022-12-20T01:52:01.576Z,28.40
2022-12-20T01:54:35.269Z,27.27
2022-12-20T01:57:07.199Z,23.30
2022-12-20T01:59:35.913Z,29.07
2022-12-20T02:02:04.363Z,27.20
2022-12-20T02:04:31.171Z,29.67
2022-12-20T02:06:58.163Z,25.37
2022-12-20T02:09:24.925Z,27.97
2022-12-20T02:12:15.172Z,25.57
2022-12-20T02:14:51.184Z,28.00
2022-12-20T02:17:24.346Z,28.20
2022-12-20T02:20:19.423Z,26.93
2022-12-20T02:22:55.462Z,29.00
2022-12-20T02:25:32.467Z,28.10
2022-12-20T02:28:27.011Z,24.47
2022-12-20T02:30:55.008Z,28.33
2022-12-20T02:33:22.177Z,30.53
2022-12-20T02:35:48.816Z,29.63
2022-12-20T02:38:38.230Z,28.33
2022-12-20T02:41:16.597Z,27.87
2022-12-20T02:44:02.933Z,29.03
2022-12-20T02:46:29.994Z,25.40
2022-12-20T02:48:59.708Z,26.30
2022-12-20T02:51:27.404Z,29.40
2022-12-20T02:53:54.108Z,26.60
2022-12-20T02:56:27.194Z,30.13
2022-12-20T02:58:58.725Z,25.37
2022-12-20T03:01:32.242Z,26.60
2022-12-20T03:03:59.369Z,22.92
2022-12-20T03:06:31.331Z,29.27
2022-12-20T03:08:58.083Z,24.47
2022-12-20T03:11:24.776Z,22.53
2022-12-20T03:14:03.635Z,28.27
2022-12-20T03:16:30.270Z,23.10
2022-12-20T03:18:56.911Z,27.13
2022-12-20T03:21:23.549Z,26.40
2022-12-20T03:23:50.251Z,22.10
2022-12-20T03:26:16.873Z,22.07
2022-12-20T03:28:43.501Z,25.80
2022-12-20T03:31:10.156Z,25.60
2022-12-20T03:33:36.805Z,24.60
2022-12-20T03:36:03.489Z,24.33
2022-12-20T03:38:30.084Z,24.77
2022-12-20T03:40:56.698Z,26.07
2022-12-20T03:43:23.480Z,26.03
2022-12-20T03:45:50.149Z,26.93
2022-12-20T03:48:16.793Z,24.33
2022-12-20T03:50:43.432Z,25.97
2022-12-20T03:53:10.058Z,24.87
2022-12-20T03:55:36.668Z,23.10
2022-12-20T03:58:03.336Z,23.87
2022-12-20T04:00:29.955Z,24.47
2022-12-20T04:02:56.860Z,24.10
2022-12-20T04:05:23.671Z,23.70
2022-12-20T04:07:50.378Z,25.13
2022-12-20T04:10:17.009Z,27.03
2022-12-20T04:12:43.695Z,24.70
2022-12-20T04:15:10.768Z,24.97
2022-12-20T04:17:37.418Z,20.70
2022-12-20T04:20:19.151Z,21.53
2022-12-20T04:22:50.467Z,22.87
2022-12-20T04:25:18.847Z,22.73
2022-12-20T04:27:45.864Z,22.03
2022-12-20T04:30:13.351Z,24.10
2022-12-20T04:32:39.956Z,27.40
2022-12-20T04:35:07.027Z,22.60
2022-12-20T04:37:33.704Z,23.57
2022-12-20T04:40:00.317Z,21.93
2022-12-20T04:42:27.238Z,25.50
2022-12-20T04:44:53.839Z,24.17
2022-12-20T04:47:21.603Z,24.07
2022-12-20T04:49:48.396Z,20.90
2022-12-20T04:52:33.763Z,22.60
2022-12-20T04:55:00.361Z,21.77
2022-12-20T04:57:27.006Z,25.63
2022-12-20T04:59:53.660Z,24.13
2022-12-20T05:02:20.397Z,23.40
2022-12-20T05:04:47.165Z,23.10
2022-12-20T05:07:13.811Z,24.57
2022-12-20T05:09:40.492Z,22.17
2022-12-20T05:12:07.292Z,25.93
2022-12-20T05:14:33.880Z,24.20
2022-12-20T05:17:00.479Z,21.93
2022-12-20T05:19:27.060Z,24.60
2022-12-20T05:22:12.543Z,23.77
2022-12-20T05:24:57.760Z,25.43
2022-12-20T05:27:24.365Z,24.23
2022-12-20T05:29:50.948Z,22.50
2022-12-20T05:32:17.553Z,23.87
2022-12-20T05:34:44.180Z,22.50
2022-12-20T05:37:10.826Z,25.17
2022-12-20T05:39:37.439Z,24.83
2022-12-20T05:42:04.344Z,28.67
2022-12-20T05:44:30.954Z,28.10
2022-12-20T05:46:57.654Z,23.87
2022-12-20T05:49:24.305Z,29.13
2022-12-20T05:51:51.187Z,26.73
2022-12-20T05:54:17.915Z,24.77
2022-12-20T05:56:44.561Z,26.43
2022-12-20T05:59:11.233Z,28.70
2022-12-20T06:01:37.988Z,25.80
2022-12-20T06:04:05.062Z,28.43
2022-12-20T06:06:31.724Z,24.63
2022-12-20T06:08:58.369Z,28.03
2022-12-20T06:11:29.831Z,23.50
2022-12-20T06:13:56.916Z,27.83
2022-12-20T06:16:23.655Z,24.10
2022-12-20T06:18:50.352Z,24.83
2022-12-20T06:21:17.926Z,25.23
2022-12-20T06:23:44.680Z,27.07
2022-12-20T06:26:11.298Z,27.63
2022-12-20T06:28:42.745Z,21.43
2022-12-20T06:31:11.076Z,22.40
2022-12-20T06:33:37.939Z,24.63
2022-12-20T06:36:04.830Z,24.03
2022-12-20T06:38:31.525Z,26.93
2022-12-20T06:40:58.128Z,29.23
2022-12-20T06:43:24.769Z,27.60
2022-12-20T06:45:51.424Z,23.27
2022-12-20T06:48:18.048Z,23.50
2022-12-20T06:50:46.218Z,24.77
2022-12-20T06:53:14.715Z,21.97
2022-12-20T06:55:41.353Z,23.23
2022-12-20T06:58:07.955Z,23.07
2022-12-20T07:00:34.750Z,23.50
2022-12-20T07:03:01.748Z,24.30
2022-12-20T07:05:28.434Z,23.30
2022-12-20T07:07:55.172Z,20.33
2022-12-20T07:10:21.835Z,23.07
2022-12-20T07:12:48.759Z,25.70
2022-12-20T07:15:15.994Z,24.77
2022-12-20T07:17:42.739Z,25.03
2022-12-20T07:20:13.713Z,22.77
2022-12-20T07:22:41.301Z,20.60
2022-12-20T07:25:08.274Z,23.77
2022-12-20T07:27:34.887Z,22.00
2022-12-20T07:30:01.628Z,20.43
2022-12-20T07:32:28.268Z,23.97
2022-12-20T07:34:55.298Z,22.30
2022-12-20T07:37:22.047Z,23.43
2022-12-20T07:39:48.644Z,21.13
2022-12-20T07:42:15.562Z,23.90
2022-12-20T07:44:43.039Z,28.20
2022-12-20T07:47:12.533Z,23.30
2022-12-20T07:49:39.240Z,20.03
2022-12-20T07:52:06.568Z,23.03
2022-12-20T07:54:36.939Z,22.13
2022-12-20T07:57:08.388Z,25.27
2022-12-20T07:59:39.472Z,25.30
2022-12-20T08:02:08.967Z,23.50
2022-12-20T08:04:35.742Z,22.37
2022-12-20T08:07:02.668Z,24.03
2022-12-20T08:09:31.745Z,19.63
2022-12-20T08:11:58.672Z,23.70
2022-12-20T08:14:25.315Z,24.37
2022-12-20T08:16:52.009Z,24.77
2022-12-20T08:19:18.670Z,21.47
2022-12-20T08:21:45.266Z,22.33
2022-12-20T08:24:12.006Z,26.20
2022-12-20T08:26:40.238Z,25.57
2022-12-20T08:29:07.396Z,25.57
2022-12-20T08:31:37.173Z,26.43
2022-12-20T08:34:04.279Z,25.67
2022-12-20T08:36:30.948Z,27.20
2022-12-20T08:38:57.620Z,24.83
2022-12-20T08:41:25.281Z,26.47
2022-12-20T08:43:51.961Z,28.53
2022-12-20T08:46:18.589Z,25.37
2022-12-20T08:48:45.279Z,30.43
2022-12-20T08:51:12.433Z,26.07
2022-12-20T08:53:39.811Z,26.83
2022-12-20T08:56:17.835Z,23.07
2022-12-20T08:58:45.119Z,28.37
2022-12-20T09:01:14.943Z,30.83
2022-12-20T09:03:42.401Z,24.60
2022-12-20T09:06:18.930Z,27.90
2022-12-20T09:08:47.101Z,30.30
2022-12-20T09:11:20.334Z,27.93
2022-12-20T09:13:48.356Z,29.37
2022-12-20T09:16:17.140Z,27.73
2022-12-20T09:18:44.041Z,28.13
2022-12-20T09:21:11.403Z,28.27
2022-12-20T09:23:38.451Z,28.50
2022-12-20T09:26:11.268Z,26.70
2022-12-20T09:28:38.375Z,26.70
2022-12-20T09:31:07.325Z,24.90
2022-12-20T09:33:34.749Z,27.33
2022-12-20T09:36:01.988Z,29.40
2022-12-20T09:38:28.991Z,27.47
2022-12-20T09:41:02.041Z,28.60
2022-12-20T09:43:28.791Z,26.60
2022-12-20T09:45:59.875Z,30.40
2022-12-20T09:48:34.011Z,26.20
2022-12-20T09:51:22.453Z,27.83
2022-12-20T09:53:56.213Z,26.57
2022-12-20T09:56:44.582Z,26.42
2022-12-20T09:59:19.562Z,27.87
2022-12-20T10:01:48.089Z,28.90
2022-12-20T10:04:21.313Z,30.27
2022-12-20T10:06:58.555Z,25.30
2022-12-20T10:10:08.851Z,28.33
2022-12-20T10:12:50.742Z,32.63
2022-12-20T10:15:32.470Z,28.47
2022-12-20T10:18:25.112Z,28.27
2022-12-20T10:21:08.643Z,24.77
2022-12-20T10:24:01.632Z,24.70
2022-12-20T10:26:29.901Z,27.77
2022-12-20T10:28:56.579Z,26.77
2022-12-20T10:31:23.392Z,29.93
2022-12-20T10:33:50.124Z,26.73
2022-12-20T10:36:27.125Z,25.67
2022-12-20T10:38:58.930Z,28.27
2022-12-20T10:41:27.937Z,32.87
2022-12-20T10:44:07.450Z,29.40
2022-12-20T10:46:41.682Z,25.57
2022-12-20T10:51:54.707Z,25.50
2022-12-20T10:54:30.353Z,24.97
2022-12-20T10:56:59.538Z,24.37
2022-12-20T10:59:33.482Z,25.50
2022-12-20T11:02:00.334Z,30.80
2022-12-20T11:04:32.295Z,26.83
2022-12-20T11:07:01.231Z,24.83
2022-12-20T11:09:36.723Z,26.83
2022-12-20T11:12:13.706Z,25.20
2022-12-20T11:14:41.996Z,25.03
2022-12-20T11:17:20.250Z,23.37
2022-12-20T11:19:59.175Z,25.40
2022-12-20T11:22:38.437Z,24.37
2022-12-20T11:25:17.772Z,29.17
2022-12-20T11:27:48.865Z,28.70
2022-12-20T11:30:20.148Z,28.60
2022-12-20T11:33:06.021Z,29.23
2022-12-20T11:35:46.128Z,25.57
2022-12-20T11:38:36.092Z,24.63
2022-12-20T11:41:11.027Z,23.83
2022-12-20T11:44:23.977Z,23.03
2022-12-20T11:47:01.067Z,27.93
2022-12-20T11:49:43.369Z,26.33
2022-12-20T11:52:13.503Z,27.07
2022-12-20T11:54:47.969Z,22.13
2022-12-20T11:57:23.412Z,25.47
2022-12-20T12:00:02.630Z,25.10
2022-12-20T12:02:36.134Z,24.33
2022-12-20T12:05:06.598Z,24.38
2022-12-20T12:07:36.979Z,26.40
2022-12-20T12:10:09.778Z,20.63
2022-12-20T12:12:46.466Z,21.70
2022-12-20T12:15:16.854Z,22.40
2022-12-20T12:18:00.668Z,20.23
2022-12-20T12:20:36.700Z,19.83
2022-12-20T12:23:11.684Z,22.53
2022-12-20T12:25:38.394Z,22.43
2022-12-20T12:28:05.619Z,19.57
2022-12-20T12:30:39.727Z,22.00
2022-12-20T12:33:24.008Z,20.65
2022-12-20T12:36:18.355Z,26.43
2022-12-20T12:39:25.910Z,19.80
2022-12-20T12:42:00.836Z,18.97
2022-12-20T12:44:40.869Z,20.70
2022-12-20T12:47:19.479Z,21.80
2022-12-20T12:49:55.565Z,21.43
2022-12-20T12:52:46.302Z,20.53
2022-12-20T12:55:48.153Z,18.40
2022-12-20T12:58:24.001Z,19.27
2022-12-20T13:00:53.072Z,18.67
2022-12-20T13:03:52.362Z,17.87
2022-12-20T13:06:28.462Z,19.00
2022-12-20T13:09:04.229Z,14.20
2022-12-20T13:11:42.892Z,15.57
2022-12-20T13:14:23.982Z,17.40
2022-12-20T13:17:12.394Z,16.57
2022-12-20T13:19:49.358Z,18.97
2022-12-20T13:22:22.046Z,18.83
2022-12-20T13:24:58.838Z,17.45
2022-12-20T13:27:33.859Z,17.30
2022-12-20T13:30:10.328Z,16.40
2022-12-20T13:32:49.309Z,15.67
2022-12-20T13:35:25.296Z,16.47
2022-12-20T13:38:04.861Z,18.87
2022-12-20T13:40:45.069Z,14.97
2022-12-20T13:43:20.857Z,14.20
2022-12-20T13:46:10.499Z,16.57
2022-12-20T13:48:46.182Z,15.53
2022-12-20T13:51:33.119Z,13.90
2022-12-20T13:54:03.427Z,12.40
2022-12-20T13:56:34.219Z,14.80
2022-12-20T13:59:07.661Z,15.20
2022-12-20T14:01:37.344Z,17.42
2022-12-20T14:04:07.297Z,18.73
2022-12-20T14:06:34.552Z,14.60
2022-12-20T14:09:01.479Z,13.83
2022-12-20T14:11:28.196Z,14.33
2022-12-20T14:13:56.979Z,14.37
2022-12-20T14:16:29.215Z,13.20
2022-12-20T14:19:03.682Z,14.03
2022-12-20T14:21:30.915Z,15.27
2022-12-20T14:23:59.097Z,17.07
2022-12-20T14:26:28.645Z,15.53
2022-12-20T14:29:01.496Z,16.20
2022-12-20T14:31:58.741Z,16.07
2022-12-20T14:34:33.084Z,13.40
2022-12-20T14:37:24.303Z,13.67
2022-12-20T14:40:19.763Z,12.50
2022-12-20T14:42:46.777Z,14.27
2022-12-20T14:45:13.338Z,12.90
2022-12-20T14:47:54.204Z,12.50
2022-12-20T14:50:30.511Z,15.03
2022-12-20T14:53:00.676Z,20.70
2022-12-20T14:55:39.574Z,14.13
2022-12-20T14:58:23.447Z,13.53
2022-12-20T15:01:08.615Z,12.95
2022-12-20T15:03:35.325Z,15.70
2022-12-20T15:06:02.306Z,15.10
2022-12-20T15:08:32.915Z,14.00
2022-12-20T15:11:08.758Z,13.17
2022-12-20T15:13:39.353Z,13.37
2022-12-20T15:16:14.970Z,16.73
2022-12-20T15:18:42.916Z,14.90
2022-12-20T15:21:30.961Z,14.40
2022-12-20T15:24:00.178Z,13.93
2022-12-20T15:26:27.955Z,10.77
2022-12-20T15:28:54.867Z,13.40
2022-12-20T15:31:30.727Z,17.63
2022-12-20T15:34:02.260Z,21.57
2022-12-20T15:36:31.316Z,17.60
2022-12-20T15:39:15.288Z,15.00
2022-12-20T15:41:46.314Z,20.73
2022-12-20T15:44:15.466Z,14.23
2022-12-20T15:46:44.323Z,13.40
2022-12-20T15:49:21.344Z,11.70
2022-12-20T15:51:52.703Z,15.87
2022-12-20T15:54:34.172Z,14.73
2022-12-20T15:57:04.218Z,13.37
2022-12-20T16:02:20.727Z,16.30
2022-12-20T16:04:47.643Z,11.50
2022-12-20T16:07:14.393Z,13.73
2022-12-20T16:09:41.466Z,15.87
2022-12-20T16:12:14.373Z,12.77
2022-12-20T16:14:47.580Z,16.23
2022-12-20T16:17:15.259Z,15.43
2022-12-20T16:19:46.204Z,16.80
2022-12-20T16:22:17.792Z,14.37
2022-12-20T16:24:45.156Z,16.20
2022-12-20T16:27:11.943Z,22.23
2022-12-20T16:29:38.968Z,20.33
2022-12-20T16:32:23.935Z,20.30
2022-12-20T16:34:51.259Z,17.77
2022-12-20T16:37:18.039Z,20.73
2022-12-20T16:39:45.267Z,18.00
2022-12-20T16:42:17.144Z,17.33
2022-12-20T16:44:45.514Z,15.23
2022-12-20T16:47:13.572Z,17.67
2022-12-20T16:49:45.774Z,14.53
2022-12-20T16:52:19.325Z,20.40
2022-12-20T16:54:46.251Z,17.13
2022-12-20T16:57:12.924Z,20.33
2022-12-20T16:59:39.560Z,15.37
2022-12-20T17:02:29.903Z,18.07
2022-12-20T17:04:57.024Z,16.73
2022-12-20T17:07:23.956Z,17.93
2022-12-20T17:12:35.310Z,18.97
2022-12-20T17:15:01.959Z,19.80
2022-12-20T17:17:28.567Z,16.17
2022-12-20T17:19:55.184Z,18.47
2022-12-20T17:22:24.678Z,17.87
2022-12-20T17:24:53.581Z,17.73
2022-12-20T17:27:20.217Z,21.80
2022-12-20T17:29:46.885Z,16.90
2022-12-20T17:32:22.151Z,16.83
2022-12-20T17:34:49.281Z,16.53
2022-12-20T17:37:17.514Z,20.50
2022-12-20T17:39:44.139Z,19.80
2022-12-20T17:42:14.364Z,20.93
2022-12-20T17:44:41.160Z,18.13
2022-12-20T17:47:09.002Z,19.03
2022-12-20T17:49:35.609Z,18.70
2022-12-20T17:52:02.285Z,19.53
2022-12-20T17:54:35.092Z,19.77
2022-12-20T17:57:05.609Z,20.03
2022-12-20T17:59:32.346Z,21.97
2022-12-20T18:01:59.490Z,18.83
2022-12-20T18:04:26.714Z,18.57
2022-12-20T18:06:53.679Z,18.13
2022-12-20T18:09:21.573Z,20.57
2022-12-20T18:11:48.648Z,20.57
2022-12-20T18:14:16.085Z,20.53
2022-12-20T18:16:42.895Z,20.47
2022-12-20T18:19:15.809Z,21.03
2022-12-20T18:21:42.419Z,24.07
2022-12-20T18:24:16.156Z,23.40
2022-12-20T18:26:43.378Z,24.08
2022-12-20T18:29:11.465Z,22.03
2022-12-20T18:31:38.812Z,20.03
2022-12-20T18:34:05.534Z,21.00
2022-12-20T18:36:37.098Z,17.13
2022-12-20T18:39:05.767Z,18.17
2022-12-20T18:41:32.577Z,21.33
2022-12-20T18:44:01.050Z,22.13
2022-12-20T18:46:28.228Z,19.53
2022-12-20T18:48:56.223Z,16.03
2022-12-20T18:51:24.813Z,19.87
2022-12-20T18:53:54.580Z,19.67
2022-12-20T18:56:26.544Z,20.83
2022-12-20T18:58:53.171Z,20.30
2022-12-20T19:01:22.694Z,18.97
2022-12-20T19:03:50.245Z,24.40
2022-12-20T19:06:17.484Z,19.43
2022-12-20T19:08:44.508Z,17.77
2022-12-20T19:11:13.824Z,22.87
2022-12-20T19:13:41.934Z,19.33
2022-12-20T19:16:13.115Z,18.83
2022-12-20T19:18:40.903Z,18.10
2022-12-20T19:21:20.571Z,23.50
2022-12-20T19:23:50.046Z,18.83
2022-12-20T19:26:17.785Z,30.67
2022-12-20T19:28:44.467Z,24.10
2022-12-20T19:31:21.573Z,24.03
2022-12-20T19:33:48.825Z,19.70
2022-12-20T19:36:17.618Z,20.67
2022-12-20T19:38:46.255Z,19.50
2022-12-20T19:41:13.468Z,19.47
2022-12-20T19:43:40.307Z,19.37
2022-12-20T19:46:08.030Z,18.37
2022-12-20T19:48:34.998Z,19.67
2022-12-20T19:51:11.838Z,21.00
2022-12-20T19:53:40.248Z,18.13
2022-12-20T19:56:10.212Z,18.47
2022-12-20T19:58:39.936Z,18.03
2022-12-20T20:01:08.305Z,17.47
2022-12-20T20:03:38.624Z,21.83
2022-12-20T20:06:06.287Z,18.33
2022-12-20T20:08:33.899Z,19.60
2022-12-20T20:11:07.117Z,20.53
2022-12-20T20:13:36.818Z,22.30
2022-12-20T20:16:04.069Z,22.80
2022-12-20T20:18:34.293Z,19.20
2022-12-20T20:21:08.256Z,19.73
2022-12-20T20:23:36.696Z,21.02
2022-12-20T20:26:06.977Z,19.07
2022-12-20T20:28:38.435Z,20.20
2022-12-20T20:31:14.268Z,18.57
2022-12-20T20:33:41.384Z,20.87
2022-12-20T20:36:08.405Z,21.97
2022-12-20T20:38:35.346Z,22.23
2022-12-20T20:41:03.604Z,21.10
2022-12-20T20:43:32.473Z,23.90
2022-12-20T20:46:03.766Z,20.27
2022-12-20T20:48:30.469Z,23.53
2022-12-20T20:50:57.115Z,23.27
2022-12-20T20:53:28.015Z,21.33
2022-12-20T20:55:59.500Z,21.80
2022-12-20T20:58:26.580Z,26.87
2022-12-20T21:00:57.363Z,26.07
2022-12-20T21:03:24.140Z,27.70
2022-12-20T21:06:33.089Z,22.93
2022-12-20T21:08:37.405Z,23.63
2022-12-20T21:11:05.881Z,22.03
2022-12-20T21:13:32.592Z,24.20
2022-12-20T21:16:11.057Z,24.50
2022-12-20T21:18:37.829Z,27.77
2022-12-20T21:21:12.460Z,30.23
2022-12-20T21:23:43.148Z,27.20
2022-12-20T21:26:09.885Z,28.73
2022-12-20T21:28:36.630Z,27.17
2022-12-20T21:31:06.587Z,28.77
2022-12-20T21:33:33.323Z,27.10
2022-12-20T21:36:07.887Z,27.77
2022-12-20T21:38:34.850Z,24.53
2022-12-20T21:41:06.180Z,28.87
2022-12-20T21:43:32.943Z,26.90
2022-12-20T21:45:59.678Z,25.30
2022-12-20T21:48:27.479Z,27.37
2022-12-20T21:51:00.174Z,25.43
2022-12-20T21:53:27.651Z,30.67
2022-12-20T21:55:59.130Z,23.37
2022-12-20T21:58:26.901Z,26.30
2022-12-20T22:00:55.446Z,29.80
2022-12-20T22:03:23.760Z,31.03
2022-12-20T22:05:57.317Z,31.00
2022-12-20T22:08:25.732Z,24.63
2022-12-20T22:11:06.294Z,29.03
2022-12-20T22:13:41.229Z,30.23
2022-12-20T22:16:13.987Z,25.07
2022-12-20T22:18:41.231Z,27.00
2022-12-20T22:21:12.585Z,22.57
2022-12-20T22:23:39.330Z,26.73
2022-12-20T22:26:08.414Z,27.03
2022-12-20T22:28:35.454Z,26.70
2022-12-20T22:31:09.842Z,27.10
2022-12-20T22:33:37.750Z,27.37
2022-12-20T22:36:05.540Z,27.30
2022-12-20T22:38:33.182Z,26.83
2022-12-20T22:41:11.790Z,26.73
2022-12-20T22:43:39.168Z,27.13
2022-12-20T22:46:05.920Z,27.10
2022-12-20T22:48:33.223Z,27.57
2022-12-20T22:51:01.816Z,24.37
2022-12-20T22:53:28.459Z,25.57
2022-12-20T22:55:55.195Z,24.23
2022-12-20T22:58:22.206Z,26.90
2022-12-20T23:00:48.792Z,21.87
2022-12-20T23:03:16.070Z,29.80
2022-12-20T23:05:54.513Z,24.10
2022-12-20T23:08:21.749Z,26.60
2022-12-20T23:11:07.171Z,29.57
2022-12-20T23:13:52.458Z,26.10
2022-12-20T23:16:19.305Z,25.00
2022-12-20T23:18:46.169Z,24.87
2022-12-20T23:21:31.426Z,27.57
2022-12-20T23:23:58.079Z,28.33
2022-12-20T23:26:26.489Z,26.03
2022-12-20T23:28:53.310Z,26.03
2022-12-20T23:31:20.263Z,23.97
2022-12-20T23:33:46.976Z,29.13
2022-12-20T23:36:13.851Z,23.90
2022-12-20T23:38:40.451Z,26.63
2022-12-20T23:41:08.850Z,26.30
2022-12-20T23:43:36.106Z,23.73
2022-12-20T23:46:07.873Z,28.13
2022-12-20T23:48:34.889Z,26.73
2022-12-20T23:51:01.569Z,24.83
2022-12-20T23:53:28.460Z,28.17
2022-12-20T23:56:21.491Z,25.77
2022-12-20T23:58:53.548Z,22.53
